Time;durP1;ratioP1;P1;durP2;ratioP2;P2;SDS_P1;SDS_P2;PMS_P1;PMS_P2;Temp;Humidity;BMP_temperature;BMP_pressure;BME280_temperature;BME280_humidity;BME280_pressure;Samples;Min_cycle;Max_cycle;Signal;HPM_P1;HPM_P2
2021/05/12 00:01:02;;;;;;;;;;;14.40;98.00;;;;;;5094766;28;19912;-85
2021/05/12 00:03:28;;;;;;;;;;;14.40;97.90;;;;;;5094939;28;20360;-85
2021/05/12 00:05:53;;;;;;;;;;;14.30;97.90;;;;;;5094889;28;19923;-85
2021/05/12 00:08:19;;;;;;;;;;;14.40;97.90;;;;;;5113220;28;19908;-85
2021/05/12 00:10:47;;;;;;;;;;;14.40;97.80;;;;;;5094193;28;20348;-85
2021/05/12 00:13:12;;;;;;;;;;;14.30;98.20;;;;;;5094603;28;19908;-85
2021/05/12 00:15:38;;;;;;;;;;;14.30;97.90;;;;;;5094511;28;19915;-85
2021/05/12 00:18:10;;;;;;;;;;;14.30;97.90;;;;;;5094700;28;20327;-84
2021/05/12 00:20:36;;;;;;;;;;;14.30;98.00;;;;;;5094497;28;20003;-86
2021/05/12 00:23:25;;;;;;;;;;;14.30;97.90;;;;;;5094535;28;20318;-85
2021/05/12 00:25:47;;;;;;;;;;;14.30;97.70;;;;;;5111471;28;19969;-85
2021/05/12 00:28:13;;;;;;;;;;;14.20;97.70;;;;;;5097195;28;20316;-85
2021/05/12 00:30:38;;;;;;;;;;;14.20;97.80;;;;;;5115788;28;19933;-86
2021/05/12 00:33:04;;;;;;;;;;;14.20;97.70;;;;;;5116520;28;19907;-85
2021/05/12 00:35:29;;;;;;;;;;;14.20;98.00;;;;;;5097758;28;19937;-85
2021/05/12 00:37:55;;;;;;;;;;;14.20;97.80;;;;;;5115955;28;20018;-85
2021/05/12 00:40:21;;;;;;;;;;;14.20;97.80;;;;;;5097821;28;19908;-85
2021/05/12 00:42:46;;;;;;;;;;;14.20;97.90;;;;;;5097851;28;19908;-85
2021/05/12 00:45:13;;;;;;;;;;;14.10;97.70;;;;;;5116313;28;19912;-85
2021/05/12 00:47:39;;;;;;;;;;;14.10;97.80;;;;;;5097717;28;20382;-85
2021/05/12 00:50:05;;;;;;;;;;;14.10;97.80;;;;;;5097309;28;19923;-85
2021/05/12 00:52:31;;;;;;;;;;;14.10;97.80;;;;;;5115960;28;19909;-85
2021/05/12 00:54:56;;;;;;;;;;;14.10;97.50;;;;;;5097739;28;19934;-85
2021/05/12 00:57:22;;;;;;;;;;;14.10;97.70;;;;;;5115870;28;19911;-85
2021/05/12 00:59:49;;;;;;;;;;;14.00;97.70;;;;;;5115941;28;19934;-86
2021/05/12 01:02:15;;;;;;;;;;;13.90;97.60;;;;;;5115845;28;20386;-86
2021/05/12 01:04:41;;;;;;;;;;;14.00;97.50;;;;;;5097633;28;19958;-86
2021/05/12 01:07:06;;;;;;;;;;;14.00;97.70;;;;;;5097670;28;19912;-86
2021/05/12 01:09:32;;;;;;;;;;;13.90;97.50;;;;;;5115488;28;19914;-85
2021/05/12 01:11:58;;;;;;;;;;;13.80;97.70;;;;;;5097435;28;19914;-85
2021/05/12 01:14:28;;;;;;;;;;;13.80;97.70;;;;;;5116022;28;19912;-85
2021/05/12 01:16:53;;;;;;;;;;;13.70;97.40;;;;;;5097646;28;20110;-86
2021/05/12 01:19:19;;;;;;;;;;;13.70;97.60;;;;;;5097107;28;19908;-85
2021/05/12 01:21:45;;;;;;;;;;;13.70;97.40;;;;;;5097229;28;19907;-85
2021/05/12 01:24:10;;;;;;;;;;;13.70;97.30;;;;;;5115798;28;19937;-85
2021/05/12 01:26:36;;;;;;;;;;;13.70;97.10;;;;;;5115716;28;19938;-85
2021/05/12 01:29:03;;;;;;;;;;;13.70;97.40;;;;;;5115060;28;19911;-85
2021/05/12 01:31:39;;;;;;;;;;;13.70;96.80;;;;;;5115589;28;19919;-85
2021/05/12 01:34:06;;;;;;;;;;;13.60;96.80;;;;;;5115562;28;19908;-85
2021/05/12 01:36:33;;;;;;;;;;;13.60;96.70;;;;;;5115364;28;19987;-85
2021/05/12 01:38:58;;;;;;;;;;;13.60;96.70;;;;;;5115020;28;19915;-85
2021/05/12 01:41:25;;;;;;;;;;;13.60;96.70;;;;;;5097526;28;19915;-85
2021/05/12 01:43:50;;;;;;;;;;;13.60;96.70;;;;;;5115961;28;19912;-85
2021/05/12 01:46:16;;;;;;;;;;;13.60;96.60;;;;;;5097366;28;20391;-85
2021/05/12 01:48:43;;;;;;;;;;;13.60;96.80;;;;;;5115315;28;19907;-85
2021/05/12 01:51:09;;;;;;;;;;;13.60;96.80;;;;;;5114820;28;19961;-85
2021/05/12 01:53:35;;;;;;;;;;;13.60;96.90;;;;;;5115404;28;19995;-85
2021/05/12 01:56:01;;;;;;;;;;;13.60;96.80;;;;;;5115083;28;19970;-86
2021/05/12 01:58:27;;;;;;;;;;;13.50;96.70;;;;;;5114867;28;19908;-85
2021/05/12 02:00:53;;;;;;;;;;;13.50;96.70;;;;;;5095949;28;20322;-85
2021/05/12 02:03:19;;;;;;;;;;;13.50;96.60;;;;;;5096494;28;19908;-85
2021/05/12 02:05:47;;;;;;;;;;;13.50;96.70;;;;;;5096380;28;19911;-86
2021/05/12 02:08:13;;;;;;;;;;;13.50;96.60;;;;;;5096646;28;19908;-86
2021/05/12 02:10:40;;;;;;;;;;;13.50;96.40;;;;;;5114428;28;19985;-85
2021/05/12 02:13:05;;;;;;;;;;;13.50;96.30;;;;;;5114918;28;20002;-85
2021/05/12 02:15:31;;;;;;;;;;;13.50;96.40;;;;;;5096865;28;20016;-85
2021/05/12 02:17:57;;;;;;;;;;;13.50;96.40;;;;;;5114962;28;19916;-85
2021/05/12 02:20:29;;;;;;;;;;;13.50;96.60;;;;;;5096339;28;19908;-85
2021/05/12 02:22:54;;;;;;;;;;;13.50;96.40;;;;;;5114831;28;19912;-85
2021/05/12 02:25:20;;;;;;;;;;;13.40;96.50;;;;;;5096647;28;19915;-85
2021/05/12 02:27:45;;;;;;;;;;;13.40;96.60;;;;;;5115286;28;20284;-85
2021/05/12 02:30:11;;;;;;;;;;;13.50;96.40;;;;;;5113306;28;19908;-86
2021/05/12 02:32:37;;;;;;;;;;;13.50;96.40;;;;;;5113605;28;20002;-86
2021/05/12 02:35:03;;;;;;;;;;;13.50;96.30;;;;;;5115329;28;19908;-85
2021/05/12 02:37:29;;;;;;;;;;;13.40;96.40;;;;;;5096254;28;19994;-85
2021/05/12 02:39:54;;;;;;;;;;;13.40;96.30;;;;;;5096129;28;20048;-85
2021/05/12 02:42:20;;;;;;;;;;;13.40;96.30;;;;;;5115214;28;19946;-85
2021/05/12 02:44:46;;;;;;;;;;;13.40;96.30;;;;;;5115040;28;20364;-85
2021/05/12 02:47:11;;;;;;;;;;;13.40;96.20;;;;;;5115847;28;19919;-85
2021/05/12 02:49:37;;;;;;;;;;;13.40;96.30;;;;;;5114848;28;19954;-85
2021/05/12 02:52:03;;;;;;;;;;;13.40;96.30;;;;;;5114619;28;19915;-86
2021/05/12 02:54:28;;;;;;;;;;;13.30;96.20;;;;;;5096267;28;19908;-85
2021/05/12 02:56:54;;;;;;;;;;;13.30;96.10;;;;;;5114209;28;19931;-85
2021/05/12 02:59:20;;;;;;;;;;;13.30;96.00;;;;;;5095394;28;19912;-85
2021/05/12 03:01:45;;;;;;;;;;;13.30;96.20;;;;;;5114067;28;19958;-86
2021/05/12 03:04:11;;;;;;;;;;;13.30;96.20;;;;;;5113544;28;20355;-85
2021/05/12 03:06:36;;;;;;;;;;;13.30;96.10;;;;;;5095195;28;19908;-85
2021/05/12 03:09:02;;;;;;;;;;;13.30;95.90;;;;;;5112737;28;19939;-85
2021/05/12 03:11:28;;;;;;;;;;;13.30;96.00;;;;;;5095143;28;19947;-85
2021/05/12 03:13:53;;;;;;;;;;;13.30;95.90;;;;;;5113429;28;19908;-85
2021/05/12 03:16:19;;;;;;;;;;;13.30;95.90;;;;;;5113480;28;20454;-85
2021/05/12 03:18:44;;;;;;;;;;;13.30;95.90;;;;;;5113248;28;19943;-85
2021/05/12 03:21:10;;;;;;;;;;;13.30;96.00;;;;;;5112591;28;20356;-85
2021/05/12 03:23:35;;;;;;;;;;;13.30;96.00;;;;;;5095000;28;19950;-85
2021/05/12 03:26:01;;;;;;;;;;;13.30;96.10;;;;;;5113354;28;19911;-85
2021/05/12 03:28:27;;;;;;;;;;;13.30;96.00;;;;;;5094949;28;19915;-86
2021/05/12 03:30:52;;;;;;;;;;;13.30;96.00;;;;;;5094220;28;20003;-85
2021/05/12 03:33:18;;;;;;;;;;;13.30;95.90;;;;;;5094804;28;19911;-85
2021/05/12 03:35:43;;;;;;;;;;;13.30;95.90;;;;;;5095016;28;20049;-85
2021/05/12 03:38:10;;;;;;;;;;;13.30;95.90;;;;;;5094751;28;19922;-85
2021/05/12 03:40:36;;;;;;;;;;;13.30;95.80;;;;;;5094235;28;20381;-85
2021/05/12 03:43:01;;;;;;;;;;;13.30;95.70;;;;;;5094505;28;19918;-85
2021/05/12 03:45:28;;;;;;;;;;;13.30;95.70;;;;;;5112678;28;20011;-85
2021/05/12 03:47:54;;;;;;;;;;;13.30;95.60;;;;;;5113164;28;19908;-85
2021/05/12 03:50:20;;;;;;;;;;;13.30;95.80;;;;;;5094589;28;20014;-85
2021/05/12 03:52:45;;;;;;;;;;;13.30;95.60;;;;;;5113305;28;20387;-85
2021/05/12 03:55:11;;;;;;;;;;;13.30;95.60;;;;;;5094557;28;19908;-85
2021/05/12 03:57:37;;;;;;;;;;;13.30;95.80;;;;;;5112816;28;19972;-85
2021/05/12 04:00:06;;;;;;;;;;;13.30;95.40;;;;;;5094330;28;20417;-85
2021/05/12 04:02:32;;;;;;;;;;;13.30;95.40;;;;;;5097770;28;19912;-85
2021/05/12 04:04:57;;;;;;;;;;;13.30;95.50;;;;;;5116981;28;19934;-85
2021/05/12 04:07:23;;;;;;;;;;;13.30;95.40;;;;;;5117940;28;20487;-85
2021/05/12 04:09:48;;;;;;;;;;;13.30;95.60;;;;;;5097926;28;19915;-84
2021/05/12 04:12:14;;;;;;;;;;;13.30;95.90;;;;;;5116679;28;19912;-85
2021/05/12 04:14:39;;;;;;;;;;;13.20;96.10;;;;;;5116827;28;19911;-85
2021/05/12 04:17:05;;;;;;;;;;;13.20;96.30;;;;;;5116760;28;19915;-85
2021/05/12 04:19:30;;;;;;;;;;;13.10;96.30;;;;;;5115947;28;20312;-85
2021/05/12 04:21:56;;;;;;;;;;;13.00;96.60;;;;;;5116629;28;20270;-85
2021/05/12 04:24:21;;;;;;;;;;;13.00;96.80;;;;;;5116665;28;19912;-85
2021/05/12 04:26:47;;;;;;;;;;;12.90;97.00;;;;;;5098349;28;19958;-85
2021/05/12 04:29:12;;;;;;;;;;;12.90;97.20;;;;;;5098459;28;19958;-85
2021/05/12 04:31:39;;;;;;;;;;;12.90;97.30;;;;;;5116289;28;19954;-85
2021/05/12 04:34:04;;;;;;;;;;;12.80;97.20;;;;;;5098033;28;19908;-85
2021/05/12 04:36:30;;;;;;;;;;;12.70;97.40;;;;;;5116335;28;19911;-85
2021/05/12 04:38:55;;;;;;;;;;;12.70;97.70;;;;;;5115627;28;19923;-85
2021/05/12 04:41:22;;;;;;;;;;;12.70;97.80;;;;;;5116487;28;19915;-85
2021/05/12 04:43:47;;;;;;;;;;;12.70;97.70;;;;;;5116417;28;19912;-85
2021/05/12 04:46:13;;;;;;;;;;;12.70;97.80;;;;;;5117213;28;19961;-84
2021/05/12 04:48:39;;;;;;;;;;;12.70;97.80;;;;;;5116541;28;19960;-84
2021/05/12 04:51:04;;;;;;;;;;;12.80;97.70;;;;;;5116093;28;19915;-84
2021/05/12 04:53:30;;;;;;;;;;;12.80;97.70;;;;;;5116644;28;20390;-84
2021/05/12 04:55:55;;;;;;;;;;;12.70;97.80;;;;;;5098340;28;19908;-84
2021/05/12 04:58:21;;;;;;;;;;;12.80;97.80;;;;;;5116446;28;19961;-85
2021/05/12 05:00:47;;;;;;;;;;;12.80;97.70;;;;;;5098303;28;19915;-84
2021/05/12 05:03:13;;;;;;;;;;;12.90;97.90;;;;;;5116207;28;20383;-84
2021/05/12 05:05:38;;;;;;;;;;;12.90;97.80;;;;;;5116408;28;20010;-85
2021/05/12 05:08:04;;;;;;;;;;;13.00;97.90;;;;;;5098024;28;19918;-84
2021/05/12 05:10:30;;;;;;;;;;;13.00;97.60;;;;;;5098426;28;19934;-85
2021/05/12 05:12:59;;;;;;;;;;;13.00;97.80;;;;;;5098187;28;19908;-84
2021/05/12 05:15:25;;;;;;;;;;;13.00;97.80;;;;;;5118237;28;19908;-85
2021/05/12 05:17:50;;;;;;;;;;;13.00;97.60;;;;;;5117939;28;19908;-85
2021/05/12 05:20:16;;;;;;;;;;;13.10;97.50;;;;;;5116844;28;19908;-84
2021/05/12 05:22:42;;;;;;;;;;;13.20;97.40;;;;;;5117517;28;20368;-84
2021/05/12 05:25:08;;;;;;;;;;;13.20;97.40;;;;;;5116860;28;19918;-85
2021/05/12 05:27:33;;;;;;;;;;;13.30;97.50;;;;;;5098716;28;19918;-85
2021/05/12 05:29:58;;;;;;;;;;;13.30;97.50;;;;;;5117070;28;19971;-86
2021/05/12 05:32:24;;;;;;;;;;;13.40;97.40;;;;;;5098629;28;19966;-84
2021/05/12 05:34:49;;;;;;;;;;;13.40;97.50;;;;;;5098702;28;19912;-84
2021/05/12 05:37:15;;;;;;;;;;;13.50;97.00;;;;;;5099077;28;19923;-84
2021/05/12 05:39:41;;;;;;;;;;;13.50;96.80;;;;;;5117019;28;19908;-85
2021/05/12 05:42:07;;;;;;;;;;;13.50;96.60;;;;;;5098481;28;19958;-84
2021/05/12 05:44:33;;;;;;;;;;;13.50;96.40;;;;;;5118006;28;19911;-84
2021/05/12 05:46:59;;;;;;;;;;;13.50;96.30;;;;;;5117519;28;19908;-85
2021/05/12 05:49:25;;;;;;;;;;;13.60;96.30;;;;;;5117525;28;19916;-85
2021/05/12 05:51:52;;;;;;;;;;;13.60;96.30;;;;;;5117389;28;20364;-84
2021/05/12 05:54:17;;;;;;;;;;;13.70;96.20;;;;;;5118258;28;19918;-85
2021/05/12 05:56:43;;;;;;;;;;;13.70;96.30;;;;;;5099274;28;20271;-85
2021/05/12 05:59:08;;;;;;;;;;;13.80;95.90;;;;;;5116798;28;19907;-84
2021/05/12 06:01:34;;;;;;;;;;;13.80;95.70;;;;;;5117456;28;19908;-85
2021/05/12 06:03:59;;;;;;;;;;;13.90;95.70;;;;;;5099286;28;19912;-84
2021/05/12 06:06:25;;;;;;;;;;;13.90;95.50;;;;;;5099007;28;19916;-84
2021/05/12 06:08:52;;;;;;;;;;;13.90;95.40;;;;;;5117297;28;20376;-85
2021/05/12 06:11:17;;;;;;;;;;;13.90;95.30;;;;;;5117740;28;19956;-84
2021/05/12 06:13:44;;;;;;;;;;;14.00;95.00;;;;;;5099774;28;19968;-84
2021/05/12 06:16:10;;;;;;;;;;;13.90;94.90;;;;;;5118202;28;19970;-85
2021/05/12 06:18:35;;;;;;;;;;;13.90;94.80;;;;;;5118207;28;19918;-85
2021/05/12 06:21:01;;;;;;;;;;;13.80;94.80;;;;;;5117378;28;19961;-84
2021/05/12 06:23:26;;;;;;;;;;;13.80;94.90;;;;;;5117944;28;20383;-85
2021/05/12 06:25:52;;;;;;;;;;;13.80;94.90;;;;;;5117008;28;19916;-84
2021/05/12 06:28:19;;;;;;;;;;;13.80;94.80;;;;;;5100005;28;20261;-84
2021/05/12 06:30:50;;;;;;;;;;;13.70;94.80;;;;;;5098959;28;19960;-85
2021/05/12 06:33:16;;;;;;;;;;;13.80;95.20;;;;;;5099454;28;19908;-85
2021/05/12 06:35:42;;;;;;;;;;;13.80;95.10;;;;;;5118297;28;20003;-85
2021/05/12 06:38:08;;;;;;;;;;;13.90;95.30;;;;;;5117425;28;19967;-85
2021/05/12 06:40:33;;;;;;;;;;;13.90;95.00;;;;;;5099276;28;19935;-85
2021/05/12 06:42:59;;;;;;;;;;;13.90;95.10;;;;;;5099992;28;19961;-84
2021/05/12 06:45:25;;;;;;;;;;;14.00;95.10;;;;;;5099809;28;19919;-85
2021/05/12 06:47:53;;;;;;;;;;;13.90;94.80;;;;;;5099991;28;19908;-85
2021/05/12 06:50:19;;;;;;;;;;;13.90;94.90;;;;;;5099834;28;19907;-85
2021/05/12 06:52:50;;;;;;;;;;;14.00;94.90;;;;;;5119062;28;19912;-85
2021/05/12 06:55:15;;;;;;;;;;;13.90;94.40;;;;;;5119577;28;19908;-85
2021/05/12 06:57:41;;;;;;;;;;;13.90;94.60;;;;;;5119043;28;20372;-85
2021/05/12 07:00:06;;;;;;;;;;;13.90;94.80;;;;;;5118565;28;19908;-85
2021/05/12 07:02:32;;;;;;;;;;;13.80;94.80;;;;;;5117156;28;19907;-85
2021/05/12 07:04:57;;;;;;;;;;;13.70;95.00;;;;;;5098886;28;19911;-85
2021/05/12 07:07:23;;;;;;;;;;;13.80;95.20;;;;;;5116756;28;20387;-86
2021/05/12 07:09:48;;;;;;;;;;;13.90;94.90;;;;;;5097770;28;19912;-85
2021/05/12 07:12:14;;;;;;;;;;;13.90;94.90;;;;;;5097092;28;20106;-85
2021/05/12 07:14:39;;;;;;;;;;;14.00;95.00;;;;;;5114411;28;19923;-84
2021/05/12 07:17:05;;;;;;;;;;;14.10;94.70;;;;;;5114588;28;20366;-85
2021/05/12 07:19:30;;;;;;;;;;;14.10;94.50;;;;;;5114541;28;19958;-85
2021/05/12 07:21:56;;;;;;;;;;;14.20;94.60;;;;;;5096834;28;19995;-85
2021/05/12 07:24:21;;;;;;;;;;;14.20;94.40;;;;;;5115969;28;19915;-85
2021/05/12 07:26:49;;;;;;;;;;;14.20;94.30;;;;;;5114777;28;19908;-85
2021/05/12 07:29:14;;;;;;;;;;;14.20;94.20;;;;;;5116142;28;19923;-85
2021/05/12 07:31:40;;;;;;;;;;;14.20;94.40;;;;;;5099436;28;19918;-85
2021/05/12 07:34:06;;;;;;;;;;;14.30;94.30;;;;;;5098790;28;20424;-85
2021/05/12 07:36:32;;;;;;;;;;;14.20;94.40;;;;;;5118577;28;19907;-85
2021/05/12 07:38:58;;;;;;;;;;;14.30;94.30;;;;;;5117497;28;19922;-85
2021/05/12 07:41:23;;;;;;;;;;;14.30;94.50;;;;;;5099446;28;19930;-85
2021/05/12 07:43:50;;;;;;;;;;;14.30;94.50;;;;;;5117507;28;19908;-85
2021/05/12 07:46:17;;;;;;;;;;;14.40;94.30;;;;;;5100090;28;20439;-86
2021/05/12 07:48:42;;;;;;;;;;;14.40;94.40;;;;;;5117445;28;20449;-85
2021/05/12 07:51:08;;;;;;;;;;;14.40;94.00;;;;;;5098206;28;19907;-85
2021/05/12 07:53:33;;;;;;;;;;;14.40;94.00;;;;;;5117174;28;19915;-85
2021/05/12 07:55:59;;;;;;;;;;;14.40;94.20;;;;;;5117767;28;19915;-86
2021/05/12 07:58:24;;;;;;;;;;;14.30;94.30;;;;;;5099128;28;19907;-85
2021/05/12 08:00:51;;;;;;;;;;;14.40;94.20;;;;;;5116828;28;19943;-85
2021/05/12 08:03:17;;;;;;;;;;;14.40;94.10;;;;;;5098925;28;19912;-85
2021/05/12 08:05:42;;;;;;;;;;;14.40;94.10;;;;;;5117643;28;19979;-86
2021/05/12 08:08:09;;;;;;;;;;;14.50;94.10;;;;;;5117440;28;19907;-85
2021/05/12 08:10:35;;;;;;;;;;;14.50;93.60;;;;;;5117057;28;19908;-85
2021/05/12 08:13:00;;;;;;;;;;;14.50;93.80;;;;;;5098077;28;20349;-85
2021/05/12 08:15:26;;;;;;;;;;;14.50;93.70;;;;;;5097971;28;19922;-86
2021/05/12 08:17:52;;;;;;;;;;;14.60;93.80;;;;;;5097701;28;19939;-85
2021/05/12 08:20:18;;;;;;;;;;;14.60;93.70;;;;;;5097423;28;19931;-85
2021/05/12 08:22:44;;;;;;;;;;;14.60;93.60;;;;;;5098021;28;19950;-85
2021/05/12 08:25:10;;;;;;;;;;;14.60;93.70;;;;;;5097998;28;19916;-86
2021/05/12 08:27:35;;;;;;;;;;;14.70;93.70;;;;;;5096251;28;19939;-85
2021/05/12 08:30:02;;;;;;;;;;;14.80;93.70;;;;;;5113995;28;20348;-85
2021/05/12 08:32:28;;;;;;;;;;;14.80;93.50;;;;;;5095592;28;19908;-85
2021/05/12 08:34:57;;;;;;;;;;;14.90;93.40;;;;;;5117706;28;19915;-85
2021/05/12 08:37:23;;;;;;;;;;;14.90;93.20;;;;;;5116604;28;19912;-85
2021/05/12 08:39:48;;;;;;;;;;;14.90;93.50;;;;;;5115307;28;20002;-85
2021/05/12 08:42:15;;;;;;;;;;;14.90;93.60;;;;;;5115740;28;20400;-86
2021/05/12 08:44:41;;;;;;;;;;;15.00;93.40;;;;;;5116258;28;19965;-86
2021/05/12 08:47:09;;;;;;;;;;;14.90;93.20;;;;;;5098605;28;19908;-85
2021/05/12 08:49:35;;;;;;;;;;;14.90;92.80;;;;;;5119759;28;19908;-86
2021/05/12 08:52:01;;;;;;;;;;;14.90;93.00;;;;;;5102846;28;19974;-85
2021/05/12 08:54:27;;;;;;;;;;;14.90;93.10;;;;;;5120783;28;19915;-86
2021/05/12 08:56:52;;;;;;;;;;;14.90;93.10;;;;;;5120520;28;19908;-85
2021/05/12 08:59:18;;;;;;;;;;;14.90;92.90;;;;;;5119934;28;20269;-85
2021/05/12 09:01:43;;;;;;;;;;;14.90;92.80;;;;;;5120923;28;19911;-85
2021/05/12 09:04:09;;;;;;;;;;;14.90;92.80;;;;;;5121056;28;19908;-85
2021/05/12 09:06:36;;;;;;;;;;;14.90;92.60;;;;;;5102235;28;19915;-86
2021/05/12 09:09:04;;;;;;;;;;;15.00;92.20;;;;;;5119921;28;19911;-85
2021/05/12 09:11:32;;;;;;;;;;;15.00;92.00;;;;;;5101933;28;20280;-86
2021/05/12 09:13:58;;;;;;;;;;;15.00;92.50;;;;;;5102207;28;19911;-84
2021/05/12 09:16:27;;;;;;;;;;;15.00;92.30;;;;;;5120130;28;19961;-86
2021/05/12 09:19:01;;;;;;;;;;;15.00;92.50;;;;;;5119949;28;19912;-86
2021/05/12 09:21:46;;;;;;;;;;;15.00;92.30;;;;;;5101646;28;19921;-85
2021/05/12 09:24:21;;;;;;;;;;;15.10;91.50;;;;;;5120043;28;20257;-86
2021/05/12 09:26:47;;;;;;;;;;;15.10;90.80;;;;;;5102227;28;19915;-85
2021/05/12 09:29:20;;;;;;;;;;;15.10;90.80;;;;;;5119663;28;19912;-86
2021/05/12 09:31:45;;;;;;;;;;;15.10;90.50;;;;;;5101964;28;19960;-85
2021/05/12 09:34:12;;;;;;;;;;;15.20;90.80;;;;;;5101918;28;20342;-86
2021/05/12 09:36:37;;;;;;;;;;;15.20;90.90;;;;;;5119941;28;20005;-85
2021/05/12 09:39:08;;;;;;;;;;;15.30;90.70;;;;;;5119387;28;19946;-86
2021/05/12 09:41:34;;;;;;;;;;;15.30;90.70;;;;;;5119781;28;19908;-85
2021/05/12 09:44:01;;;;;;;;;;;15.30;90.60;;;;;;5120034;28;19919;-85
2021/05/12 09:46:31;;;;;;;;;;;15.30;90.40;;;;;;5119090;28;19907;-85
2021/05/12 09:48:59;;;;;;;;;;;15.40;90.70;;;;;;5099436;28;19959;-85
2021/05/12 09:51:26;;;;;;;;;;;15.40;90.40;;;;;;5118874;28;19915;-85
2021/05/12 09:54:01;;;;;;;;;;;15.40;88.10;;;;;;5101063;28;19908;-85
2021/05/12 09:57:00;;;;;;;;;;;15.50;88.80;;;;;;5101240;28;19933;-85
2021/05/12 09:59:26;;;;;;;;;;;15.50;89.60;;;;;;5062957;28;19947;-86
2021/05/12 10:02:02;;;;;;;;;;;15.50;89.50;;;;;;5119373;28;20268;-86
2021/05/12 10:04:38;;;;;;;;;;;15.60;90.20;;;;;;5100747;28;19939;-86
2021/05/12 10:07:20;;;;;;;;;;;15.70;87.80;;;;;;5101261;28;20048;-85
2021/05/12 10:09:48;;;;;;;;;;;15.70;86.60;;;;;;5119232;28;19908;-85
2021/05/12 10:12:20;;;;;;;;;;;15.70;86.80;;;;;;5118849;28;20326;-85
2021/05/12 10:14:50;;;;;;;;;;;15.60;85.70;;;;;;5100365;28;19908;-85
2021/05/12 10:17:17;;;;;;;;;;;15.60;87.30;;;;;;5119012;28;19912;-86
2021/05/12 10:19:43;;;;;;;;;;;15.60;88.30;;;;;;5118624;28;19961;-85
2021/05/12 10:22:09;;;;;;;;;;;15.60;88.60;;;;;;5100461;28;19915;-86
2021/05/12 10:24:35;;;;;;;;;;;15.50;87.50;;;;;;5118828;28;19915;-86
2021/05/12 10:27:03;;;;;;;;;;;15.50;87.10;;;;;;5118827;28;19908;-86
2021/05/12 10:29:29;;;;;;;;;;;15.50;86.70;;;;;;5100515;28;19916;-85
2021/05/12 10:31:55;;;;;;;;;;;15.60;88.00;;;;;;5100380;28;19912;-86
2021/05/12 10:34:39;;;;;;;;;;;15.60;88.40;;;;;;5100648;28;19972;-85
2021/05/12 10:37:21;;;;;;;;;;;15.60;87.90;;;;;;5118860;28;19943;-85
2021/05/12 10:39:51;;;;;;;;;;;15.60;87.70;;;;;;5100259;28;20011;-86
2021/05/12 10:42:35;;;;;;;;;;;15.60;86.30;;;;;;5100636;28;19912;-86
2021/05/12 10:45:02;;;;;;;;;;;15.60;86.20;;;;;;5118316;28;19959;-86
2021/05/12 10:47:35;;;;;;;;;;;15.60;85.30;;;;;;5099495;28;20329;-86
2021/05/12 10:50:02;;;;;;;;;;;15.60;85.70;;;;;;5098822;28;19912;-85
2021/05/12 10:52:28;;;;;;;;;;;15.70;84.50;;;;;;5099702;28;19912;-85
2021/05/12 10:54:53;;;;;;;;;;;15.70;84.10;;;;;;5118672;28;19915;-86
2021/05/12 10:57:37;;;;;;;;;;;15.80;84.40;;;;;;5119515;28;19991;-86
2021/05/12 11:00:03;;;;;;;;;;;15.80;84.00;;;;;;5118374;28;19908;-86
2021/05/12 11:03:07;;;;;;;;;;;15.80;84.70;;;;;;5100496;28;19930;-86
2021/05/12 11:05:42;;;;;;;;;;;15.80;83.90;;;;;;5016490;28;19914;-85
2021/05/12 11:08:11;;;;;;;;;;;15.80;82.90;;;;;;5015696;28;20369;-85
2021/05/12 11:10:55;;;;;;;;;;;15.90;82.00;;;;;;5071643;28;19915;-86
2021/05/12 11:13:22;;;;;;;;;;;15.90;81.30;;;;;;5117869;28;20015;-86
2021/05/12 11:15:52;;;;;;;;;;;15.90;81.10;;;;;;5098346;28;19960;-85
2021/05/12 11:18:36;;;;;;;;;;;16.00;81.50;;;;;;5115925;28;19910;-86
2021/05/12 11:21:23;;;;;;;;;;;16.10;81.10;;;;;;5096965;28;19940;-85
2021/05/12 11:24:01;;;;;;;;;;;16.10;81.10;;;;;;5097904;28;19911;-85
2021/05/12 11:26:46;;;;;;;;;;;16.20;80.80;;;;;;5115583;28;19911;-85
2021/05/12 11:31:56;;;;;;;;;;;16.20;78.60;;;;;;5115782;28;19914;-86
2021/05/12 11:34:21;;;;;;;;;;;16.10;75.40;;;;;;5116042;28;19912;-85
2021/05/12 11:36:47;;;;;;;;;;;16.00;74.60;;;;;;5098029;28;20261;-86
2021/05/12 11:39:13;;;;;;;;;;;16.10;75.80;;;;;;5127653;28;19959;-84
2021/05/12 11:41:39;;;;;;;;;;;16.10;75.60;;;;;;5112252;28;19957;-86
2021/05/12 11:44:05;;;;;;;;;;;16.10;77.70;;;;;;5132375;28;19908;-85
2021/05/12 11:46:32;;;;;;;;;;;16.20;79.30;;;;;;5114249;28;19915;-86
2021/05/12 11:48:59;;;;;;;;;;;16.20;80.30;;;;;;5113191;28;20142;-86
2021/05/12 11:51:28;;;;;;;;;;;16.40;78.50;;;;;;5113951;28;19910;-85
2021/05/12 11:53:53;;;;;;;;;;;16.50;78.50;;;;;;5113909;28;19963;-85
2021/05/12 11:56:19;;;;;;;;;;;16.50;78.10;;;;;;5131954;28;19919;-85
2021/05/12 11:58:53;;;;;;;;;;;16.50;75.30;;;;;;5132011;28;20344;-87
2021/05/12 12:01:18;;;;;;;;;;;16.50;74.70;;;;;;5114215;28;19896;-85
2021/05/12 12:03:51;;;;;;;;;;;16.50;74.90;;;;;;5113744;28;20527;-86
2021/05/12 12:06:16;;;;;;;;;;;16.60;74.30;;;;;;5114734;28;19912;-86
2021/05/12 12:08:44;;;;;;;;;;;16.60;76.40;;;;;;5114011;28;19914;-85
2021/05/12 12:11:12;;;;;;;;;;;16.70;76.40;;;;;;5131402;28;19911;-86
2021/05/12 12:13:38;;;;;;;;;;;16.80;74.50;;;;;;5131996;28;19939;-85
2021/05/12 12:16:04;;;;;;;;;;;16.90;73.60;;;;;;5113544;28;19907;-85
2021/05/12 12:18:31;;;;;;;;;;;17.00;73.80;;;;;;5131403;28;19950;-84
2021/05/12 12:20:57;;;;;;;;;;;17.00;68.00;;;;;;5113075;28;19912;-86
2021/05/12 12:23:27;;;;;;;;;;;17.00;68.00;;;;;;5133533;28;19919;-86
2021/05/12 12:26:16;;;;;;;;;;;17.10;65.30;;;;;;5117714;28;19915;-86
2021/05/12 12:28:51;;;;;;;;;;;17.10;68.30;;;;;;5117682;28;19914;-86
2021/05/12 12:31:19;;;;;;;;;;;17.00;70.60;;;;;;5135166;28;19912;-84
2021/05/12 12:34:04;;;;;;;;;;;17.10;70.80;;;;;;5116519;28;19908;-85
2021/05/12 12:36:30;;;;;;;;;;;17.10;70.50;;;;;;5116743;28;19933;-85
2021/05/12 12:39:00;;;;;;;;;;;17.20;71.20;;;;;;5134925;28;19916;-86
2021/05/12 12:41:27;;;;;;;;;;;17.20;69.50;;;;;;5135497;28;19942;-85
2021/05/12 12:43:53;;;;;;;;;;;17.10;68.60;;;;;;5134889;28;19908;-85
2021/05/12 12:46:27;;;;;;;;;;;17.10;68.60;;;;;;5117525;28;19933;-85
2021/05/12 12:48:53;;;;;;;;;;;17.10;68.80;;;;;;5135069;28;19908;-87
2021/05/12 12:51:38;;;;;;;;;;;17.10;70.30;;;;;;5134250;28;19958;-84
2021/05/12 12:54:04;;;;;;;;;;;17.10;70.10;;;;;;5134851;28;19953;-85
2021/05/12 12:56:30;;;;;;;;;;;17.20;71.20;;;;;;5134317;28;19922;-84
2021/05/12 12:59:03;;;;;;;;;;;17.20;70.10;;;;;;5112199;28;20094;-84
2021/05/12 13:01:32;;;;;;;;;;;17.20;70.70;;;;;;5129393;28;19908;-84
2021/05/12 13:04:12;;;;;;;;;;;17.20;69.20;;;;;;5109588;28;19914;-84
2021/05/12 13:06:37;;;;;;;;;;;17.30;68.30;;;;;;5110791;28;19965;-85
2021/05/12 13:09:21;;;;;;;;;;;17.30;66.80;;;;;;5130341;28;20002;-86
2021/05/12 13:11:51;;;;;;;;;;;17.30;67.90;;;;;;5129275;28;19907;-84
2021/05/12 13:14:16;;;;;;;;;;;17.30;67.00;;;;;;5110508;28;20351;-85
2021/05/12 13:16:42;;;;;;;;;;;17.30;67.60;;;;;;5126739;28;19934;-84
2021/05/12 13:19:08;;;;;;;;;;;17.30;66.00;;;;;;5126266;28;19912;-85
2021/05/12 13:21:35;;;;;;;;;;;17.20;68.50;;;;;;5108060;28;19986;-84
2021/05/12 13:24:05;;;;;;;;;;;17.20;69.40;;;;;;5106175;28;19907;-85
2021/05/12 13:26:34;;;;;;;;;;;17.20;69.60;;;;;;5113035;28;19912;-85
2021/05/12 13:29:04;;;;;;;;;;;17.20;68.50;;;;;;5114892;28;19943;-85
2021/05/12 13:31:29;;;;;;;;;;;17.20;68.10;;;;;;5134366;28;20103;-87
2021/05/12 13:33:56;;;;;;;;;;;17.30;67.80;;;;;;5115474;28;19965;-86
2021/05/12 13:36:21;;;;;;;;;;;17.30;68.10;;;;;;5115454;28;19908;-86
2021/05/12 13:38:47;;;;;;;;;;;17.30;67.60;;;;;;5116041;28;19903;-87
2021/05/12 13:41:13;;;;;;;;;;;17.30;67.70;;;;;;5133632;28;19979;-85
2021/05/12 13:43:38;;;;;;;;;;;17.30;67.80;;;;;;5114570;28;19907;-85
2021/05/12 13:46:04;;;;;;;;;;;17.30;67.30;;;;;;5133388;28;19940;-84
2021/05/12 13:48:31;;;;;;;;;;;17.40;67.60;;;;;;5115582;28;20291;-85
2021/05/12 13:50:56;;;;;;;;;;;17.40;65.80;;;;;;5115303;28;19908;-84
2021/05/12 13:53:29;;;;;;;;;;;17.40;65.90;;;;;;5115429;28;19957;-85
2021/05/12 14:03:57;;;;;;;;;;;17.20;63.40;;;;;;5116056;28;19929;-84
2021/05/12 14:06:32;;;;;;;;;;;17.20;63.00;;;;;;5114817;28;19912;-84
2021/05/12 14:09:06;;;;;;;;;;;17.20;63.20;;;;;;5114969;28;20375;-84
2021/05/12 14:11:32;;;;;;;;;;;17.20;63.30;;;;;;5096551;28;19915;-83
2021/05/12 14:14:10;;;;;;;;;;;17.20;64.10;;;;;;5096523;28;19908;-83
2021/05/12 14:16:59;;;;;;;;;;;17.20;64.10;;;;;;5096647;28;20336;-84
2021/05/12 14:19:25;;;;;;;;;;;17.20;65.30;;;;;;5095874;28;20364;-83
2021/05/12 14:21:52;;;;;;;;;;;17.20;64.70;;;;;;5114865;28;19912;-83
2021/05/12 14:24:18;;;;;;;;;;;17.20;64.70;;;;;;5114836;28;19908;-84
2021/05/12 14:26:43;;;;;;;;;;;17.20;65.40;;;;;;5096335;28;20007;-83
2021/05/12 14:29:15;;;;;;;;;;;17.20;65.60;;;;;;5114278;28;19908;-84